createdAt,value
2019-03-30T00:00:06.687Z,14.93
2019-03-30T00:02:37.619Z,14.97
2019-03-30T00:05:07.015Z,14.50
2019-03-30T00:07:36.349Z,14.33
2019-03-30T00:10:06.119Z,14.43
2019-03-30T00:12:35.513Z,15.07
2019-03-30T00:15:05.708Z,15.63
2019-03-30T00:17:35.107Z,20.83
2019-03-30T00:20:05.887Z,24.27
2019-03-30T00:22:35.222Z,18.63
2019-03-30T00:25:06.391Z,23.33
2019-03-30T00:27:35.715Z,25.30
2019-03-30T00:30:07.610Z,27.13
2019-03-30T00:32:36.994Z,24.03
2019-03-30T00:35:07.059Z,25.40
2019-03-30T00:37:36.420Z,26.10
2019-03-30T00:40:06.984Z,24.50
2019-03-30T00:42:36.307Z,26.03
2019-03-30T00:45:07.599Z,26.00
2019-03-30T00:47:36.920Z,25.33
2019-03-30T00:50:07.796Z,25.67
2019-03-30T00:52:37.120Z,24.33
2019-03-30T00:55:07.305Z,22.30
2019-03-30T00:57:37.622Z,22.50
2019-03-30T01:00:08.385Z,22.67
2019-03-30T01:02:37.707Z,22.93
2019-03-30T01:05:07.289Z,21.00
2019-03-30T01:07:36.646Z,18.43
2019-03-30T01:10:07.854Z,19.93
2019-03-30T01:12:37.175Z,21.40
2019-03-30T01:15:07.704Z,23.53
2019-03-30T01:17:37.027Z,21.23
2019-03-30T01:20:08.014Z,24.80
2019-03-30T01:22:37.445Z,23.00
2019-03-30T01:25:09.202Z,22.17
2019-03-30T01:27:38.550Z,19.53
2019-03-30T01:30:22.233Z,18.93
2019-03-30T01:32:39.691Z,19.17
2019-03-30T01:35:09.212Z,17.83
2019-03-30T01:37:38.592Z,17.50
2019-03-30T01:40:08.547Z,17.90
2019-03-30T01:42:37.879Z,16.37
2019-03-30T01:45:10.099Z,16.90
2019-03-30T01:47:39.425Z,15.17
2019-03-30T01:50:17.145Z,16.63
2019-03-30T01:52:40.539Z,14.87
2019-03-30T01:55:09.992Z,14.70
2019-03-30T01:57:39.340Z,15.90
2019-03-30T02:00:09.577Z,16.37
2019-03-30T02:02:39.139Z,17.97
2019-03-30T02:05:09.866Z,19.60
2019-03-30T02:07:39.195Z,18.60
2019-03-30T02:10:10.270Z,17.13
2019-03-30T02:12:39.616Z,18.17
2019-03-30T02:15:09.299Z,17.20
2019-03-30T02:17:38.628Z,18.03
2019-03-30T02:20:08.886Z,18.07
2019-03-30T02:22:38.215Z,18.80
2019-03-30T02:25:07.997Z,20.40
2019-03-30T02:27:37.341Z,20.37
2019-03-30T02:30:07.509Z,24.27
2019-03-30T02:32:36.844Z,25.97
2019-03-30T02:35:06.931Z,28.83
2019-03-30T02:37:36.269Z,29.30
2019-03-30T02:40:07.043Z,28.53
2019-03-30T02:42:37.352Z,25.67
2019-03-30T02:45:07.041Z,26.47
2019-03-30T02:47:36.368Z,23.97
2019-03-30T02:50:07.331Z,24.33
2019-03-30T02:52:36.656Z,20.50
2019-03-30T02:55:12.511Z,18.40
2019-03-30T02:57:39.999Z,17.23
2019-03-30T03:00:11.667Z,16.87
2019-03-30T03:02:41.076Z,16.67
2019-03-30T03:05:10.929Z,15.33
2019-03-30T03:07:40.256Z,14.47
2019-03-30T03:10:10.604Z,14.40
2019-03-30T03:12:39.924Z,14.83
2019-03-30T03:15:10.220Z,19.47
2019-03-30T03:17:39.616Z,19.60
2019-03-30T03:20:10.297Z,18.17
2019-03-30T03:22:40.647Z,23.87
2019-03-30T03:25:10.144Z,18.97
2019-03-30T03:27:39.476Z,19.17
2019-03-30T03:30:09.543Z,18.03
2019-03-30T03:32:38.919Z,17.00
2019-03-30T03:35:09.015Z,17.57
2019-03-30T03:37:45.289Z,16.90
2019-03-30T03:40:09.897Z,16.87
2019-03-30T03:42:39.316Z,17.70
2019-03-30T03:45:09.132Z,17.00
2019-03-30T03:47:38.467Z,17.27
2019-03-30T03:50:08.502Z,17.10
2019-03-30T03:52:38.337Z,18.07
2019-03-30T03:55:08.248Z,16.57
2019-03-30T03:57:40.394Z,16.97
2019-03-30T04:00:10.329Z,15.13
2019-03-30T04:02:39.961Z,16.30
2019-03-30T04:05:09.565Z,15.53
2019-03-30T04:07:40.807Z,16.10
2019-03-30T04:10:10.742Z,16.97
2019-03-30T04:12:43.674Z,15.90
2019-03-30T04:15:16.264Z,16.60
2019-03-30T04:17:45.716Z,16.20
2019-03-30T04:20:18.237Z,16.33
2019-03-30T04:22:47.707Z,14.97
2019-03-30T04:25:17.145Z,15.23
2019-03-30T04:27:46.472Z,15.40
2019-03-30T04:30:16.140Z,17.10
2019-03-30T04:32:45.485Z,17.10
2019-03-30T04:35:14.857Z,16.00
2019-03-30T04:37:44.248Z,15.40
2019-03-30T04:40:13.575Z,16.40
2019-03-30T04:42:42.908Z,16.10
2019-03-30T04:45:12.304Z,15.17
2019-03-30T04:47:41.645Z,16.03
2019-03-30T04:50:11.038Z,15.57
2019-03-30T04:52:40.367Z,15.80
2019-03-30T04:55:09.693Z,14.47
2019-03-30T04:57:39.024Z,14.90
2019-03-30T05:00:08.990Z,15.03
2019-03-30T05:02:38.324Z,14.90
2019-03-30T05:05:08.202Z,16.07
2019-03-30T05:07:37.547Z,16.83
2019-03-30T05:10:08.691Z,16.00
2019-03-30T05:12:39.004Z,17.10
2019-03-30T05:15:08.984Z,17.70
2019-03-30T05:17:47.505Z,17.63
2019-03-30T05:20:09.666Z,18.73
2019-03-30T05:22:39.006Z,20.27
2019-03-30T05:25:08.500Z,20.87
2019-03-30T05:27:37.835Z,21.50
2019-03-30T05:30:07.819Z,22.70
2019-03-30T05:32:37.215Z,24.33
2019-03-30T05:35:07.176Z,24.53
2019-03-30T05:37:36.507Z,23.43
2019-03-30T05:40:09.867Z,22.80
2019-03-30T05:42:39.199Z,22.83
2019-03-30T05:45:08.524Z,23.27
2019-03-30T05:47:37.855Z,21.67
2019-03-30T05:50:08.483Z,21.80
2019-03-30T05:52:37.840Z,21.77
2019-03-30T05:55:08.198Z,19.97
2019-03-30T05:57:37.546Z,21.13
2019-03-30T06:00:09.144Z,20.37
2019-03-30T06:02:38.488Z,19.10
2019-03-30T06:05:07.819Z,25.77
2019-03-30T06:07:37.143Z,19.37
2019-03-30T06:10:06.915Z,18.67
2019-03-30T06:12:36.247Z,19.07
2019-03-30T06:15:08.835Z,18.30
2019-03-30T06:17:39.063Z,18.93
2019-03-30T06:20:08.743Z,19.73
2019-03-30T06:22:40.582Z,21.40
2019-03-30T06:25:09.100Z,18.87
2019-03-30T06:27:38.419Z,19.77
2019-03-30T06:30:15.999Z,18.67
2019-03-30T06:32:45.967Z,19.73
2019-03-30T06:35:15.322Z,21.30
2019-03-30T06:37:44.707Z,22.60
2019-03-30T06:40:14.487Z,24.07
2019-03-30T06:42:44.055Z,24.57
2019-03-30T06:45:13.664Z,25.70
2019-03-30T06:47:43.011Z,24.57
2019-03-30T06:50:12.895Z,22.73
2019-03-30T06:52:56.347Z,24.70
2019-03-30T06:55:13.823Z,22.47
2019-03-30T06:57:44.220Z,22.57
2019-03-30T07:00:14.155Z,22.17
2019-03-30T07:02:43.557Z,31.10
2019-03-30T07:05:13.230Z,24.03
2019-03-30T07:07:45.488Z,23.77
2019-03-30T07:10:15.170Z,26.87
2019-03-30T07:12:46.107Z,24.70
2019-03-30T07:15:15.508Z,25.23
2019-03-30T07:17:46.081Z,28.33
2019-03-30T07:20:18.503Z,26.13
2019-03-30T07:22:51.117Z,33.13
2019-03-30T07:25:18.877Z,24.77
2019-03-30T07:27:48.204Z,23.57
2019-03-30T07:30:17.540Z,21.77
2019-03-30T07:32:46.872Z,23.73
2019-03-30T07:35:16.208Z,21.97
2019-03-30T07:37:45.535Z,22.13
2019-03-30T07:40:14.882Z,25.60
2019-03-30T07:42:44.223Z,27.17
2019-03-30T07:45:14.012Z,21.67
2019-03-30T07:47:43.337Z,22.27
2019-03-30T07:50:12.999Z,23.57
2019-03-30T07:52:42.334Z,22.03
2019-03-30T07:55:11.663Z,23.87
2019-03-30T07:57:41.975Z,22.80
2019-03-30T08:00:11.659Z,21.73
2019-03-30T08:02:40.990Z,23.13
2019-03-30T08:05:10.521Z,21.27
2019-03-30T08:07:39.859Z,21.42
2019-03-30T08:10:09.543Z,23.05
2019-03-30T08:12:38.931Z,23.50
2019-03-30T08:15:09.517Z,22.57
2019-03-30T08:17:38.932Z,23.07
2019-03-30T08:20:09.293Z,21.43
2019-03-30T08:22:39.114Z,22.17
2019-03-30T08:25:08.671Z,21.67
2019-03-30T08:27:38.003Z,23.00
2019-03-30T08:30:08.473Z,22.62
2019-03-30T08:32:37.810Z,22.20
2019-03-30T08:35:07.510Z,22.98
2019-03-30T08:37:36.845Z,22.00
2019-03-30T08:40:06.908Z,22.52
2019-03-30T08:42:36.272Z,22.25
2019-03-30T08:45:08.304Z,22.42
2019-03-30T08:47:37.635Z,23.52
2019-03-30T08:50:08.099Z,21.82
2019-03-30T08:52:37.441Z,22.85
2019-03-30T08:55:08.012Z,21.82
2019-03-30T08:57:37.344Z,21.85
2019-03-30T09:00:07.507Z,21.93
2019-03-30T09:02:37.011Z,22.73
2019-03-30T09:05:08.011Z,23.60
2019-03-30T09:07:37.417Z,23.40
2019-03-30T09:10:08.964Z,22.70
2019-03-30T09:12:38.299Z,23.37
2019-03-30T09:15:08.059Z,23.77
2019-03-30T09:17:37.572Z,22.57
2019-03-30T09:20:08.142Z,23.70
2019-03-30T09:22:37.489Z,23.80
2019-03-30T09:25:06.887Z,22.50
2019-03-30T09:27:36.231Z,25.13
2019-03-30T09:30:08.121Z,23.03
2019-03-30T09:32:37.643Z,23.20
2019-03-30T09:35:08.015Z,22.47
2019-03-30T09:37:37.534Z,23.97
2019-03-30T09:40:08.760Z,22.63
2019-03-30T09:42:38.085Z,23.07
2019-03-30T09:45:08.375Z,23.07
2019-03-30T09:47:37.784Z,22.00
2019-03-30T09:50:08.959Z,23.73
2019-03-30T09:52:39.251Z,22.80
2019-03-30T09:55:09.218Z,22.97
2019-03-30T09:57:38.543Z,23.60
2019-03-30T10:00:08.415Z,23.00
2019-03-30T10:02:37.821Z,22.47
2019-03-30T10:05:07.414Z,22.57
2019-03-30T10:07:36.745Z,22.20
2019-03-30T10:10:07.516Z,22.63
2019-03-30T10:12:36.852Z,21.43
2019-03-30T10:15:07.216Z,21.93
2019-03-30T10:17:36.556Z,21.63
2019-03-30T10:20:09.348Z,21.20
2019-03-30T10:22:42.020Z,20.87
2019-03-30T10:25:09.905Z,22.00
2019-03-30T10:27:39.228Z,21.33
2019-03-30T10:30:11.279Z,20.67
2019-03-30T10:32:41.686Z,19.90
2019-03-30T10:35:11.025Z,19.03
2019-03-30T10:37:40.359Z,19.47
2019-03-30T10:40:10.449Z,18.27
2019-03-30T10:42:39.840Z,18.50
2019-03-30T10:45:09.711Z,18.33
2019-03-30T10:47:39.045Z,17.83
2019-03-30T10:50:08.814Z,17.27
2019-03-30T10:52:39.107Z,17.17
2019-03-30T10:55:08.892Z,17.23
2019-03-30T10:57:38.207Z,16.50
2019-03-30T11:00:09.750Z,16.73
2019-03-30T11:02:39.434Z,17.70
2019-03-30T11:05:08.868Z,15.60
2019-03-30T11:07:38.200Z,16.70
2019-03-30T11:10:08.672Z,16.60
2019-03-30T11:12:38.029Z,18.27
2019-03-30T11:15:07.853Z,19.07
2019-03-30T11:17:37.198Z,16.73
2019-03-30T11:20:06.608Z,16.20
2019-03-30T11:22:35.944Z,17.63
2019-03-30T11:25:07.785Z,16.80
2019-03-30T11:27:36.475Z,18.23
2019-03-30T11:30:07.257Z,18.60
2019-03-30T11:32:36.589Z,17.27
2019-03-30T11:35:06.683Z,17.80
2019-03-30T11:37:36.047Z,17.67
2019-03-30T11:40:07.315Z,17.37
2019-03-30T11:42:36.660Z,18.10
2019-03-30T11:45:06.925Z,18.20
2019-03-30T11:47:36.328Z,16.83
2019-03-30T11:50:07.816Z,17.07
2019-03-30T11:52:37.310Z,16.90
2019-03-30T11:55:20.585Z,16.43
2019-03-30T11:57:38.410Z,17.00
2019-03-30T12:00:08.777Z,17.43
2019-03-30T12:02:38.115Z,17.60
2019-03-30T12:05:08.379Z,17.37
2019-03-30T12:07:37.711Z,17.27
2019-03-30T12:10:07.273Z,17.13
2019-03-30T12:12:37.525Z,15.40
2019-03-30T12:15:08.151Z,14.73
2019-03-30T12:17:40.829Z,14.90
2019-03-30T12:20:08.760Z,15.57
2019-03-30T12:22:38.099Z,16.37
2019-03-30T12:25:07.615Z,17.60
2019-03-30T12:27:36.963Z,18.03
2019-03-30T12:30:07.127Z,18.47
2019-03-30T12:32:36.467Z,18.17
2019-03-30T12:35:08.885Z,15.63
2019-03-30T12:37:38.243Z,16.67
2019-03-30T12:40:07.910Z,15.20
2019-03-30T12:42:37.248Z,16.33
2019-03-30T12:45:07.513Z,16.27
2019-03-30T12:47:36.860Z,16.80
2019-03-30T12:50:08.002Z,16.43
2019-03-30T12:52:37.343Z,16.03
2019-03-30T12:55:07.122Z,16.93
2019-03-30T12:57:36.444Z,16.77
2019-03-30T13:00:07.519Z,15.73
2019-03-30T13:02:36.851Z,15.90
2019-03-30T13:05:07.566Z,16.17
2019-03-30T13:07:37.049Z,16.27
2019-03-30T13:10:08.160Z,16.47
2019-03-30T13:12:37.489Z,16.20
2019-03-30T13:15:08.178Z,15.60
2019-03-30T13:17:37.503Z,15.30
2019-03-30T13:20:07.174Z,15.30
2019-03-30T13:22:36.496Z,14.70
2019-03-30T13:25:06.341Z,14.40
2019-03-30T13:27:35.880Z,15.20
2019-03-30T13:30:09.648Z,14.23
2019-03-30T13:32:39.031Z,14.07
2019-03-30T13:35:08.368Z,14.27
2019-03-30T13:37:37.697Z,14.83
2019-03-30T13:40:08.172Z,14.00
2019-03-30T13:42:37.503Z,13.33
2019-03-30T13:45:07.987Z,11.83
2019-03-30T13:47:37.334Z,12.03
2019-03-30T13:50:07.755Z,11.20
2019-03-30T13:52:38.075Z,11.27
2019-03-30T13:55:07.942Z,11.73
2019-03-30T13:57:37.267Z,10.90
2019-03-30T14:00:10.028Z,11.50
2019-03-30T14:02:39.378Z,13.53
2019-03-30T14:05:08.780Z,11.80
2019-03-30T14:07:38.104Z,11.97
2019-03-30T14:10:08.480Z,11.87
2019-03-30T14:12:37.808Z,11.80
2019-03-30T14:15:09.504Z,11.50
2019-03-30T14:17:39.104Z,11.37
2019-03-30T14:20:09.231Z,11.70
2019-03-30T14:22:38.555Z,12.23
2019-03-30T14:25:08.035Z,11.20
2019-03-30T14:27:37.380Z,11.73
2019-03-30T14:30:10.065Z,11.23
2019-03-30T14:32:39.391Z,10.20
2019-03-30T14:35:08.890Z,9.73
2019-03-30T14:37:38.278Z,9.33
2019-03-30T14:40:08.471Z,9.17
2019-03-30T14:42:37.797Z,10.47
2019-03-30T14:45:09.088Z,9.90
2019-03-30T14:47:38.407Z,11.20
2019-03-30T14:50:09.086Z,10.13
2019-03-30T14:52:39.084Z,10.33
2019-03-30T14:55:08.956Z,10.97
2019-03-30T14:57:38.290Z,10.90
2019-03-30T15:00:10.323Z,10.73
2019-03-30T15:02:39.687Z,10.83
2019-03-30T15:05:09.496Z,10.03
2019-03-30T15:07:38.875Z,10.17
2019-03-30T15:10:09.744Z,10.53
2019-03-30T15:12:39.991Z,11.10
2019-03-30T15:15:10.252Z,10.60
2019-03-30T15:17:40.962Z,9.43
2019-03-30T15:20:11.335Z,8.77
2019-03-30T15:22:40.676Z,8.30
2019-03-30T15:25:11.306Z,9.13
2019-03-30T15:27:40.638Z,10.00
2019-03-30T15:30:10.795Z,10.33
2019-03-30T15:32:40.154Z,10.23
2019-03-30T15:35:10.503Z,10.73
2019-03-30T15:37:39.843Z,13.63
2019-03-30T15:40:09.240Z,10.53
2019-03-30T15:42:40.445Z,10.43
2019-03-30T15:45:10.856Z,10.67
2019-03-30T15:47:40.200Z,10.27
2019-03-30T15:50:10.535Z,10.00
2019-03-30T15:52:39.868Z,10.07
2019-03-30T15:55:09.627Z,9.70
2019-03-30T15:57:38.955Z,9.77
2019-03-30T16:00:14.503Z,10.30
2019-03-30T16:02:43.978Z,9.57
2019-03-30T16:05:15.354Z,9.40
2019-03-30T16:07:44.436Z,9.60
2019-03-30T16:10:15.259Z,9.40
2019-03-30T16:12:44.630Z,9.23
2019-03-30T16:15:15.006Z,8.73
2019-03-30T16:17:44.359Z,8.50
2019-03-30T16:20:14.786Z,8.43
2019-03-30T16:22:45.256Z,7.67
2019-03-30T16:25:14.735Z,7.70
2019-03-30T16:27:44.071Z,10.60
2019-03-30T16:30:14.161Z,23.60
2019-03-30T16:32:43.548Z,29.43
2019-03-30T16:35:12.971Z,32.30
2019-03-30T16:37:42.311Z,35.20
2019-03-30T16:40:11.979Z,38.10
2019-03-30T16:42:41.357Z,39.47
2019-03-30T16:45:10.768Z,38.47
2019-03-30T16:47:40.187Z,38.10
2019-03-30T16:50:09.954Z,37.27
2019-03-30T16:52:40.971Z,35.53
2019-03-30T16:55:10.319Z,42.87
2019-03-30T16:57:43.624Z,37.60
2019-03-30T17:00:11.212Z,38.53
2019-03-30T17:02:40.536Z,37.67
2019-03-30T17:05:11.209Z,36.87
2019-03-30T17:07:41.502Z,39.47
2019-03-30T17:10:11.303Z,43.20
2019-03-30T17:12:41.595Z,40.37
2019-03-30T17:15:11.301Z,46.33
2019-03-30T17:17:40.692Z,53.87
2019-03-30T17:20:10.451Z,48.70
2019-03-30T17:22:39.783Z,44.17
2019-03-30T17:25:09.189Z,51.97
2019-03-30T17:27:38.517Z,43.83
2019-03-30T17:30:08.886Z,47.80
2019-03-30T17:32:38.212Z,45.70
2019-03-30T17:35:07.564Z,50.23
2019-03-30T17:37:36.887Z,62.37
2019-03-30T17:40:08.383Z,43.03
2019-03-30T17:42:38.894Z,89.23
2019-03-30T17:45:10.557Z,52.30
2019-03-30T17:47:39.902Z,85.60
2019-03-30T17:50:09.708Z,75.17
2019-03-30T17:52:39.061Z,46.50
2019-03-30T17:55:10.832Z,68.80
2019-03-30T17:57:40.265Z,55.40
2019-03-30T18:00:12.695Z,53.73
2019-03-30T18:02:42.017Z,56.67
2019-03-30T18:05:11.714Z,51.50
2019-03-30T18:07:41.254Z,53.87
2019-03-30T18:10:12.036Z,51.60
2019-03-30T18:12:41.359Z,48.87
2019-03-30T18:15:11.239Z,51.40
2019-03-30T18:17:40.571Z,49.67
2019-03-30T18:20:10.844Z,48.97
2019-03-30T18:22:40.187Z,49.07
2019-03-30T18:25:09.697Z,51.00
2019-03-30T18:27:39.023Z,46.17
2019-03-30T18:30:09.047Z,42.73
2019-03-30T18:32:38.374Z,41.17
2019-03-30T18:35:07.772Z,42.20
2019-03-30T18:37:37.471Z,38.93
2019-03-30T18:40:07.951Z,38.50
2019-03-30T18:42:37.311Z,36.30
2019-03-30T18:45:07.576Z,40.10
2019-03-30T18:47:36.925Z,39.27
2019-03-30T18:50:07.883Z,44.33
2019-03-30T18:52:37.951Z,41.63
2019-03-30T18:55:07.466Z,43.20
2019-03-30T18:57:36.847Z,43.13
2019-03-30T19:00:07.803Z,47.33
2019-03-30T19:02:38.910Z,45.23
2019-03-30T19:05:08.305Z,44.93
2019-03-30T19:07:38.619Z,48.13
2019-03-30T19:10:08.133Z,55.97
2019-03-30T19:12:37.700Z,50.27
2019-03-30T19:15:07.555Z,49.00
2019-03-30T19:17:36.964Z,48.73
2019-03-30T19:20:08.071Z,46.37
2019-03-30T19:22:38.002Z,44.40
2019-03-30T19:25:08.187Z,45.10
2019-03-30T19:27:37.520Z,45.47
2019-03-30T19:30:12.293Z,44.07
2019-03-30T19:32:41.763Z,43.67
2019-03-30T19:35:11.296Z,43.57
2019-03-30T19:37:40.843Z,43.67
2019-03-30T19:40:10.405Z,44.43
2019-03-30T19:42:39.809Z,44.17
2019-03-30T19:45:09.380Z,41.90
2019-03-30T19:47:40.433Z,43.07
2019-03-30T19:50:10.631Z,42.43
2019-03-30T19:52:40.538Z,45.60
2019-03-30T19:55:11.040Z,43.37
2019-03-30T19:57:40.378Z,42.77
2019-03-30T20:00:12.820Z,46.67
2019-03-30T20:02:42.358Z,46.30
2019-03-30T20:05:12.259Z,44.80
2019-03-30T20:07:42.792Z,44.53
2019-03-30T20:10:12.616Z,46.37
2019-03-30T20:12:42.303Z,46.77
2019-03-30T20:15:11.696Z,48.40
2019-03-30T20:17:41.347Z,46.10
2019-03-30T20:20:11.264Z,46.23
2019-03-30T20:22:40.671Z,47.77
2019-03-30T20:25:10.227Z,47.53
2019-03-30T20:27:39.739Z,47.37
2019-03-30T20:30:10.783Z,47.93
2019-03-30T20:32:43.075Z,49.10
2019-03-30T20:35:13.288Z,48.47
2019-03-30T20:37:42.723Z,46.63
2019-03-30T20:40:12.491Z,46.13
2019-03-30T20:42:42.236Z,47.07
2019-03-30T20:45:13.339Z,49.47
2019-03-30T20:47:44.287Z,52.43
2019-03-30T20:50:15.056Z,56.03
2019-03-30T20:52:44.548Z,54.67
2019-03-30T20:55:14.029Z,48.00
2019-03-30T20:57:43.560Z,47.57
2019-03-30T21:00:13.950Z,47.07
2019-03-30T21:02:43.595Z,45.40
2019-03-30T21:05:14.773Z,45.37
2019-03-30T21:07:44.318Z,45.23
2019-03-30T21:10:13.874Z,46.67
2019-03-30T21:12:44.440Z,44.63
2019-03-30T21:15:14.229Z,43.90
2019-03-30T21:17:43.712Z,44.20
2019-03-30T21:20:13.204Z,42.83
2019-03-30T21:22:42.908Z,43.53
2019-03-30T21:25:12.527Z,46.33
2019-03-30T21:27:41.847Z,45.53
2019-03-30T21:30:12.236Z,45.40
2019-03-30T21:32:41.635Z,45.27
2019-03-30T21:35:11.168Z,45.03
2019-03-30T21:37:40.490Z,42.60
2019-03-30T21:40:10.141Z,44.00
2019-03-30T21:42:39.476Z,42.60
2019-03-30T21:45:09.235Z,43.83
2019-03-30T21:47:38.574Z,44.50
2019-03-30T21:50:09.636Z,44.07
2019-03-30T21:52:38.962Z,43.27
2019-03-30T21:55:09.498Z,43.37
2019-03-30T21:57:38.824Z,44.10
2019-03-30T22:00:10.989Z,43.07
2019-03-30T22:02:39.715Z,43.27
2019-03-30T22:05:09.280Z,44.77
2019-03-30T22:07:38.872Z,45.67
2019-03-30T22:10:10.798Z,44.40
2019-03-30T22:12:41.837Z,43.57
2019-03-30T22:15:12.867Z,44.73
2019-03-30T22:17:42.196Z,44.53
2019-03-30T22:20:11.538Z,43.63
2019-03-30T22:22:40.866Z,43.47
2019-03-30T22:25:10.184Z,42.80
2019-03-30T22:27:39.515Z,43.23
2019-03-30T22:30:24.117Z,42.23
2019-03-30T22:32:41.467Z,43.47
2019-03-30T22:35:11.468Z,44.23
2019-03-30T22:37:40.799Z,45.53
2019-03-30T22:40:11.087Z,41.80
2019-03-30T22:42:40.519Z,44.17
2019-03-30T22:45:10.378Z,42.10
2019-03-30T22:47:39.716Z,41.80
2019-03-30T22:50:09.479Z,43.87
2019-03-30T22:52:38.820Z,42.17
2019-03-30T22:55:08.475Z,42.47
2019-03-30T22:57:37.820Z,44.10
2019-03-30T23:00:11.080Z,44.57
2019-03-30T23:02:42.015Z,44.23
2019-03-30T23:05:11.507Z,42.43
2019-03-30T23:07:40.841Z,44.93
2019-03-30T23:10:10.158Z,45.83
2019-03-30T23:12:39.506Z,45.20
2019-03-30T23:15:09.177Z,43.90
2019-03-30T23:17:39.544Z,43.80
2019-03-30T23:20:08.952Z,43.43
2019-03-30T23:22:38.270Z,43.93
2019-03-30T23:25:07.780Z,46.13
2019-03-30T23:27:37.098Z,44.40
2019-03-30T23:30:07.656Z,45.80
2019-03-30T23:32:37.032Z,44.67
2019-03-30T23:35:07.952Z,44.60
2019-03-30T23:37:37.340Z,41.17
2019-03-30T23:40:08.136Z,42.60
2019-03-30T23:42:37.455Z,41.57
2019-03-30T23:45:07.723Z,38.73
2019-03-30T23:47:37.040Z,39.70
2019-03-30T23:50:07.159Z,36.97
2019-03-30T23:52:36.483Z,35.97
2019-03-30T23:55:06.562Z,33.90
2019-03-30T23:57:35.899Z,31.47
